sensor_id;sensor_type;location;lat;lon;timestamp;P1;durP1;ratioP1;P2;durP2;ratioP2
9906;SDS011;4992;51.628;6.664;2024-01-30T00:01:13;11.17;;;9.40;;
9906;SDS011;4992;51.628;6.664;2024-01-30T00:03:39;10.57;;;9.23;;
9906;SDS011;4992;51.628;6.664;2024-01-30T00:06:04;14.33;;;10.50;;
9906;SDS011;4992;51.628;6.664;2024-01-30T00:08:30;14.03;;;9.60;;
9906;SDS011;4992;51.628;6.664;2024-01-30T00:10:55;10.77;;;9.33;;
9906;SDS011;4992;51.628;6.664;2024-01-30T00:13:21;13.60;;;9.73;;
9906;SDS011;4992;51.628;6.664;2024-01-30T00:15:47;14.17;;;10.33;;
9906;SDS011;4992;51.628;6.664;2024-01-30T00:18:13;11.27;;;10.07;;
9906;SDS011;4992;51.628;6.664;2024-01-30T00:20:39;12.77;;;10.27;;
9906;SDS011;4992;51.628;6.664;2024-01-30T00:23:04;9.83;;;8.80;;
9906;SDS011;4992;51.628;6.664;2024-01-30T00:25:30;12.13;;;9.93;;
9906;SDS011;4992;51.628;6.664;2024-01-30T00:27:56;16.10;;;9.80;;
9906;SDS011;4992;51.628;6.664;2024-01-30T00:30:21;12.40;;;9.00;;
9906;SDS011;4992;51.628;6.664;2024-01-30T00:32:47;16.37;;;11.00;;
9906;SDS011;4992;51.628;6.664;2024-01-30T00:35:12;10.93;;;9.73;;
9906;SDS011;4992;51.628;6.664;2024-01-30T00:37:38;14.60;;;10.10;;
9906;SDS011;4992;51.628;6.664;2024-01-30T00:40:04;12.97;;;10.03;;
9906;SDS011;4992;51.628;6.664;2024-01-30T00:42:31;13.90;;;10.37;;
9906;SDS011;4992;51.628;6.664;2024-01-30T00:44:57;14.33;;;10.53;;
9906;SDS011;4992;51.628;6.664;2024-01-30T00:47:23;15.97;;;10.63;;
9906;SDS011;4992;51.628;6.664;2024-01-30T00:49:48;13.10;;;10.30;;
9906;SDS011;4992;51.628;6.664;2024-01-30T00:52:14;11.53;;;10.23;;
9906;SDS011;4992;51.628;6.664;2024-01-30T00:54:40;13.73;;;10.30;;
9906;SDS011;4992;51.628;6.664;2024-01-30T00:57:06;14.03;;;10.83;;
9906;SDS011;4992;51.628;6.664;2024-01-30T00:59:32;11.70;;;10.27;;
9906;SDS011;4992;51.628;6.664;2024-01-30T01:01:58;12.87;;;10.10;;
9906;SDS011;4992;51.628;6.664;2024-01-30T01:04:23;13.63;;;9.73;;
9906;SDS011;4992;51.628;6.664;2024-01-30T01:06:49;12.37;;;9.63;;
9906;SDS011;4992;51.628;6.664;2024-01-30T01:09:14;11.60;;;9.27;;
9906;SDS011;4992;51.628;6.664;2024-01-30T01:11:40;13.13;;;9.70;;
9906;SDS011;4992;51.628;6.664;2024-01-30T01:14:06;13.30;;;9.53;;
9906;SDS011;4992;51.628;6.664;2024-01-30T01:16:31;13.33;;;9.60;;
9906;SDS011;4992;51.628;6.664;2024-01-30T01:18:57;11.13;;;8.90;;
9906;SDS011;4992;51.628;6.664;2024-01-30T01:21:25;12.83;;;9.23;;
9906;SDS011;4992;51.628;6.664;2024-01-30T01:23:50;13.83;;;9.50;;
9906;SDS011;4992;51.628;6.664;2024-01-30T01:26:16;12.07;;;9.83;;
9906;SDS011;4992;51.628;6.664;2024-01-30T01:28:41;11.43;;;9.83;;
9906;SDS011;4992;51.628;6.664;2024-01-30T01:31:07;12.17;;;9.27;;
9906;SDS011;4992;51.628;6.664;2024-01-30T01:33:33;13.87;;;9.50;;
9906;SDS011;4992;51.628;6.664;2024-01-30T01:35:59;11.60;;;8.97;;
9906;SDS011;4992;51.628;6.664;2024-01-30T01:38:27;13.13;;;9.30;;
9906;SDS011;4992;51.628;6.664;2024-01-30T01:40:53;12.17;;;8.60;;
9906;SDS011;4992;51.628;6.664;2024-01-30T01:43:18;11.90;;;8.90;;
9906;SDS011;4992;51.628;6.664;2024-01-30T01:45:44;11.87;;;9.30;;
9906;SDS011;4992;51.628;6.664;2024-01-30T01:48:10;11.77;;;9.40;;
9906;SDS011;4992;51.628;6.664;2024-01-30T01:50:37;13.07;;;9.33;;
9906;SDS011;4992;51.628;6.664;2024-01-30T01:53:03;13.27;;;9.17;;
9906;SDS011;4992;51.628;6.664;2024-01-30T01:55:32;11.03;;;8.77;;
9906;SDS011;4992;51.628;6.664;2024-01-30T01:57:59;10.33;;;8.73;;
9906;SDS011;4992;51.628;6.664;2024-01-30T02:00:24;10.77;;;8.80;;
9906;SDS011;4992;51.628;6.664;2024-01-30T02:02:50;11.10;;;9.13;;
9906;SDS011;4992;51.628;6.664;2024-01-30T02:05:19;13.37;;;9.40;;
9906;SDS011;4992;51.628;6.664;2024-01-30T02:07:45;14.03;;;9.17;;
9906;SDS011;4992;51.628;6.664;2024-01-30T02:10:11;10.73;;;9.10;;
9906;SDS011;4992;51.628;6.664;2024-01-30T02:12:37;13.00;;;9.37;;
9906;SDS011;4992;51.628;6.664;2024-01-30T02:15:03;13.23;;;9.47;;
9906;SDS011;4992;51.628;6.664;2024-01-30T02:17:30;13.27;;;9.00;;
9906;SDS011;4992;51.628;6.664;2024-01-30T02:19:55;11.00;;;9.23;;
9906;SDS011;4992;51.628;6.664;2024-01-30T02:22:21;13.37;;;9.87;;
9906;SDS011;4992;51.628;6.664;2024-01-30T02:24:48;12.87;;;9.40;;
9906;SDS011;4992;51.628;6.664;2024-01-30T02:27:14;11.13;;;9.33;;
9906;SDS011;4992;51.628;6.664;2024-01-30T02:29:39;12.53;;;9.57;;
9906;SDS011;4992;51.628;6.664;2024-01-30T02:32:05;11.63;;;10.43;;
9906;SDS011;4992;51.628;6.664;2024-01-30T02:34:31;15.20;;;10.53;;
9906;SDS011;4992;51.628;6.664;2024-01-30T02:36:56;13.70;;;10.70;;
9906;SDS011;4992;51.628;6.664;2024-01-30T02:39:22;18.43;;;12.30;;
9906;SDS011;4992;51.628;6.664;2024-01-30T02:41:48;14.57;;;13.17;;
9906;SDS011;4992;51.628;6.664;2024-01-30T02:44:13;16.80;;;13.50;;
9906;SDS011;4992;51.628;6.664;2024-01-30T02:46:39;20.60;;;14.30;;
9906;SDS011;4992;51.628;6.664;2024-01-30T02:49:04;18.40;;;15.53;;
9906;SDS011;4992;51.628;6.664;2024-01-30T02:51:30;19.13;;;15.13;;
9906;SDS011;4992;51.628;6.664;2024-01-30T02:53:55;19.90;;;16.20;;
9906;SDS011;4992;51.628;6.664;2024-01-30T02:56:21;21.60;;;16.53;;
9906;SDS011;4992;51.628;6.664;2024-01-30T02:58:47;20.90;;;15.83;;
9906;SDS011;4992;51.628;6.664;2024-01-30T03:01:12;20.67;;;16.43;;
9906;SDS011;4992;51.628;6.664;2024-01-30T03:03:38;19.63;;;16.30;;
9906;SDS011;4992;51.628;6.664;2024-01-30T03:06:05;18.03;;;14.83;;
9906;SDS011;4992;51.628;6.664;2024-01-30T03:08:30;16.40;;;13.97;;
9906;SDS011;4992;51.628;6.664;2024-01-30T03:10:56;16.97;;;13.43;;
9906;SDS011;4992;51.628;6.664;2024-01-30T03:13:21;20.23;;;13.87;;
9906;SDS011;4992;51.628;6.664;2024-01-30T03:15:48;15.90;;;12.37;;
9906;SDS011;4992;51.628;6.664;2024-01-30T03:18:14;16.37;;;11.47;;
9906;SDS011;4992;51.628;6.664;2024-01-30T03:20:39;16.20;;;11.90;;
9906;SDS011;4992;51.628;6.664;2024-01-30T03:23:05;14.57;;;11.47;;
9906;SDS011;4992;51.628;6.664;2024-01-30T03:25:30;11.60;;;10.20;;
9906;SDS011;4992;51.628;6.664;2024-01-30T03:27:56;15.13;;;10.97;;
9906;SDS011;4992;51.628;6.664;2024-01-30T03:30:21;13.50;;;10.47;;
9906;SDS011;4992;51.628;6.664;2024-01-30T03:32:47;18.07;;;11.23;;
9906;SDS011;4992;51.628;6.664;2024-01-30T03:35:13;12.80;;;10.57;;
9906;SDS011;4992;51.628;6.664;2024-01-30T03:37:38;13.73;;;10.40;;
9906;SDS011;4992;51.628;6.664;2024-01-30T03:40:04;13.33;;;10.30;;
9906;SDS011;4992;51.628;6.664;2024-01-30T03:42:30;13.20;;;10.03;;
9906;SDS011;4992;51.628;6.664;2024-01-30T03:44:56;14.03;;;10.17;;
9906;SDS011;4992;51.628;6.664;2024-01-30T03:47:21;14.07;;;10.57;;
9906;SDS011;4992;51.628;6.664;2024-01-30T03:49:47;13.87;;;10.13;;
9906;SDS011;4992;51.628;6.664;2024-01-30T03:52:13;13.33;;;10.30;;
9906;SDS011;4992;51.628;6.664;2024-01-30T03:54:38;11.43;;;9.50;;
9906;SDS011;4992;51.628;6.664;2024-01-30T03:57:04;12.57;;;9.80;;
9906;SDS011;4992;51.628;6.664;2024-01-30T03:59:30;12.03;;;9.67;;
9906;SDS011;4992;51.628;6.664;2024-01-30T04:01:56;12.40;;;9.33;;
9906;SDS011;4992;51.628;6.664;2024-01-30T04:04:21;15.07;;;10.10;;
9906;SDS011;4992;51.628;6.664;2024-01-30T04:06:48;9.90;;;8.90;;
9906;SDS011;4992;51.628;6.664;2024-01-30T04:09:13;10.37;;;9.17;;
9906;SDS011;4992;51.628;6.664;2024-01-30T04:11:39;15.00;;;10.40;;
9906;SDS011;4992;51.628;6.664;2024-01-30T04:14:05;13.63;;;10.47;;
9906;SDS011;4992;51.628;6.664;2024-01-30T04:16:30;15.23;;;10.17;;
9906;SDS011;4992;51.628;6.664;2024-01-30T04:18:56;18.37;;;11.10;;
9906;SDS011;4992;51.628;6.664;2024-01-30T04:21:23;13.60;;;10.97;;
9906;SDS011;4992;51.628;6.664;2024-01-30T04:23:50;11.87;;;10.40;;
9906;SDS011;4992;51.628;6.664;2024-01-30T04:26:16;14.40;;;10.93;;
9906;SDS011;4992;51.628;6.664;2024-01-30T04:28:42;17.10;;;10.63;;
9906;SDS011;4992;51.628;6.664;2024-01-30T04:31:09;13.37;;;10.77;;
9906;SDS011;4992;51.628;6.664;2024-01-30T04:33:35;17.97;;;10.77;;
9906;SDS011;4992;51.628;6.664;2024-01-30T04:36:01;16.27;;;10.53;;
9906;SDS011;4992;51.628;6.664;2024-01-30T04:38:26;18.20;;;11.53;;
9906;SDS011;4992;51.628;6.664;2024-01-30T04:40:52;15.03;;;11.40;;
9906;SDS011;4992;51.628;6.664;2024-01-30T04:43:17;15.37;;;11.77;;
9906;SDS011;4992;51.628;6.664;2024-01-30T04:45:44;17.77;;;11.53;;
9906;SDS011;4992;51.628;6.664;2024-01-30T04:48:09;14.87;;;11.60;;
9906;SDS011;4992;51.628;6.664;2024-01-30T04:50:35;14.37;;;10.73;;
9906;SDS011;4992;51.628;6.664;2024-01-30T04:53:01;13.23;;;10.60;;
9906;SDS011;4992;51.628;6.664;2024-01-30T04:55:26;14.07;;;10.20;;
9906;SDS011;4992;51.628;6.664;2024-01-30T04:57:52;14.87;;;10.77;;
9906;SDS011;4992;51.628;6.664;2024-01-30T05:00:17;16.97;;;10.77;;
9906;SDS011;4992;51.628;6.664;2024-01-30T05:02:43;12.77;;;10.50;;
9906;SDS011;4992;51.628;6.664;2024-01-30T05:05:09;14.23;;;10.07;;
9906;SDS011;4992;51.628;6.664;2024-01-30T05:07:34;14.60;;;10.30;;
9906;SDS011;4992;51.628;6.664;2024-01-30T05:10:01;16.40;;;10.50;;
9906;SDS011;4992;51.628;6.664;2024-01-30T05:12:27;13.60;;;11.20;;
9906;SDS011;4992;51.628;6.664;2024-01-30T05:14:52;16.30;;;11.13;;
9906;SDS011;4992;51.628;6.664;2024-01-30T05:17:18;11.37;;;10.00;;
9906;SDS011;4992;51.628;6.664;2024-01-30T05:19:43;15.83;;;10.50;;
9906;SDS011;4992;51.628;6.664;2024-01-30T05:22:09;15.10;;;10.90;;
9906;SDS011;4992;51.628;6.664;2024-01-30T05:24:35;12.57;;;9.73;;
9906;SDS011;4992;51.628;6.664;2024-01-30T05:27:02;11.87;;;9.70;;
9906;SDS011;4992;51.628;6.664;2024-01-30T05:29:27;10.97;;;9.40;;
9906;SDS011;4992;51.628;6.664;2024-01-30T05:31:53;11.90;;;9.50;;
9906;SDS011;4992;51.628;6.664;2024-01-30T05:34:18;14.33;;;9.50;;
9906;SDS011;4992;51.628;6.664;2024-01-30T05:36:44;10.93;;;8.93;;
9906;SDS011;4992;51.628;6.664;2024-01-30T05:39:10;15.77;;;10.67;;
9906;SDS011;4992;51.628;6.664;2024-01-30T05:41:35;10.40;;;9.13;;
9906;SDS011;4992;51.628;6.664;2024-01-30T05:44:01;10.63;;;8.80;;
9906;SDS011;4992;51.628;6.664;2024-01-30T05:46:27;13.00;;;8.53;;
9906;SDS011;4992;51.628;6.664;2024-01-30T05:48:52;14.23;;;8.63;;
9906;SDS011;4992;51.628;6.664;2024-01-30T05:51:18;11.10;;;8.57;;
9906;SDS011;4992;51.628;6.664;2024-01-30T05:53:43;9.83;;;8.30;;
9906;SDS011;4992;51.628;6.664;2024-01-30T05:56:09;10.80;;;7.73;;
9906;SDS011;4992;51.628;6.664;2024-01-30T05:58:34;12.53;;;8.50;;
9906;SDS011;4992;51.628;6.664;2024-01-30T06:01:00;9.43;;;8.53;;
9906;SDS011;4992;51.628;6.664;2024-01-30T06:03:25;11.87;;;7.87;;
9906;SDS011;4992;51.628;6.664;2024-01-30T06:05:51;9.30;;;8.07;;
9906;SDS011;4992;51.628;6.664;2024-01-30T06:08:17;10.43;;;7.47;;
9906;SDS011;4992;51.628;6.664;2024-01-30T06:10:43;9.43;;;8.13;;
9906;SDS011;4992;51.628;6.664;2024-01-30T06:13:08;11.27;;;8.10;;
9906;SDS011;4992;51.628;6.664;2024-01-30T06:15:34;10.87;;;8.30;;
9906;SDS011;4992;51.628;6.664;2024-01-30T06:17:59;9.00;;;7.90;;
9906;SDS011;4992;51.628;6.664;2024-01-30T06:20:25;12.77;;;8.67;;
9906;SDS011;4992;51.628;6.664;2024-01-30T06:22:50;11.23;;;8.30;;
9906;SDS011;4992;51.628;6.664;2024-01-30T06:25:16;13.47;;;8.73;;
9906;SDS011;4992;51.628;6.664;2024-01-30T06:27:42;11.43;;;8.50;;
9906;SDS011;4992;51.628;6.664;2024-01-30T06:30:08;10.80;;;8.37;;
9906;SDS011;4992;51.628;6.664;2024-01-30T06:32:35;12.07;;;9.17;;
9906;SDS011;4992;51.628;6.664;2024-01-30T06:35:01;11.83;;;8.53;;
9906;SDS011;4992;51.628;6.664;2024-01-30T06:37:27;12.67;;;8.80;;
9906;SDS011;4992;51.628;6.664;2024-01-30T06:39:53;12.40;;;9.53;;
9906;SDS011;4992;51.628;6.664;2024-01-30T06:42:18;11.97;;;8.77;;
9906;SDS011;4992;51.628;6.664;2024-01-30T06:44:44;11.97;;;8.83;;
9906;SDS011;4992;51.628;6.664;2024-01-30T06:47:10;14.37;;;9.30;;
9906;SDS011;4992;51.628;6.664;2024-01-30T06:49:35;13.67;;;9.77;;
9906;SDS011;4992;51.628;6.664;2024-01-30T06:52:07;12.90;;;8.93;;
9906;SDS011;4992;51.628;6.664;2024-01-30T06:54:32;13.47;;;9.20;;
9906;SDS011;4992;51.628;6.664;2024-01-30T06:56:58;11.70;;;8.10;;
9906;SDS011;4992;51.628;6.664;2024-01-30T06:59:24;10.50;;;8.43;;
9906;SDS011;4992;51.628;6.664;2024-01-30T07:01:50;12.47;;;8.97;;
9906;SDS011;4992;51.628;6.664;2024-01-30T07:04:15;12.93;;;9.03;;
9906;SDS011;4992;51.628;6.664;2024-01-30T07:06:41;15.67;;;11.07;;
9906;SDS011;4992;51.628;6.664;2024-01-30T07:09:07;13.53;;;10.00;;
9906;SDS011;4992;51.628;6.664;2024-01-30T07:11:33;14.77;;;10.30;;
9906;SDS011;4992;51.628;6.664;2024-01-30T07:13:59;13.03;;;9.20;;
9906;SDS011;4992;51.628;6.664;2024-01-30T07:16:25;13.83;;;9.83;;
9906;SDS011;4992;51.628;6.664;2024-01-30T07:18:50;14.50;;;8.93;;
9906;SDS011;4992;51.628;6.664;2024-01-30T07:21:16;11.03;;;9.47;;
9906;SDS011;4992;51.628;6.664;2024-01-30T07:23:42;16.83;;;10.13;;
9906;SDS011;4992;51.628;6.664;2024-01-30T07:26:08;10.90;;;9.83;;
9906;SDS011;4992;51.628;6.664;2024-01-30T07:28:34;12.57;;;9.57;;
9906;SDS011;4992;51.628;6.664;2024-01-30T07:31:00;13.97;;;10.50;;
9906;SDS011;4992;51.628;6.664;2024-01-30T07:33:26;13.00;;;9.77;;
9906;SDS011;4992;51.628;6.664;2024-01-30T07:35:52;16.07;;;9.93;;
9906;SDS011;4992;51.628;6.664;2024-01-30T07:38:18;13.27;;;8.90;;
9906;SDS011;4992;51.628;6.664;2024-01-30T07:40:44;13.60;;;9.07;;
9906;SDS011;4992;51.628;6.664;2024-01-30T07:43:10;11.00;;;9.30;;
9906;SDS011;4992;51.628;6.664;2024-01-30T07:45:36;12.43;;;9.90;;
9906;SDS011;4992;51.628;6.664;2024-01-30T07:48:03;16.83;;;10.43;;
9906;SDS011;4992;51.628;6.664;2024-01-30T07:50:29;13.93;;;9.77;;
9906;SDS011;4992;51.628;6.664;2024-01-30T07:52:59;12.17;;;10.13;;
9906;SDS011;4992;51.628;6.664;2024-01-30T07:55:25;12.53;;;9.37;;
9906;SDS011;4992;51.628;6.664;2024-01-30T07:57:53;12.83;;;9.13;;
9906;SDS011;4992;51.628;6.664;2024-01-30T08:00:22;11.93;;;8.97;;
9906;SDS011;4992;51.628;6.664;2024-01-30T08:02:48;14.80;;;9.57;;
9906;SDS011;4992;51.628;6.664;2024-01-30T08:05:13;13.43;;;9.80;;
9906;SDS011;4992;51.628;6.664;2024-01-30T08:07:40;13.87;;;9.53;;
9906;SDS011;4992;51.628;6.664;2024-01-30T08:10:07;14.60;;;9.47;;
9906;SDS011;4992;51.628;6.664;2024-01-30T08:12:33;11.50;;;9.00;;
9906;SDS011;4992;51.628;6.664;2024-01-30T08:14:58;13.73;;;10.03;;
9906;SDS011;4992;51.628;6.664;2024-01-30T08:17:24;13.30;;;8.83;;
9906;SDS011;4992;51.628;6.664;2024-01-30T08:19:49;12.90;;;9.37;;
9906;SDS011;4992;51.628;6.664;2024-01-30T08:22:15;13.47;;;9.13;;
9906;SDS011;4992;51.628;6.664;2024-01-30T08:24:40;13.00;;;9.00;;
9906;SDS011;4992;51.628;6.664;2024-01-30T08:27:06;14.13;;;9.00;;
9906;SDS011;4992;51.628;6.664;2024-01-30T08:29:34;16.27;;;8.90;;
9906;SDS011;4992;51.628;6.664;2024-01-30T08:32:00;10.80;;;8.80;;
9906;SDS011;4992;51.628;6.664;2024-01-30T08:34:26;10.03;;;8.63;;
9906;SDS011;4992;51.628;6.664;2024-01-30T08:36:52;12.63;;;8.67;;
9906;SDS011;4992;51.628;6.664;2024-01-30T08:39:17;10.53;;;8.30;;
9906;SDS011;4992;51.628;6.664;2024-01-30T08:41:43;9.57;;;8.20;;
9906;SDS011;4992;51.628;6.664;2024-01-30T08:44:09;8.70;;;7.80;;
9906;SDS011;4992;51.628;6.664;2024-01-30T08:46:36;12.83;;;9.10;;
9906;SDS011;4992;51.628;6.664;2024-01-30T08:49:01;10.37;;;8.13;;
9906;SDS011;4992;51.628;6.664;2024-01-30T08:51:28;10.60;;;7.93;;
9906;SDS011;4992;51.628;6.664;2024-01-30T08:53:53;10.17;;;7.83;;
9906;SDS011;4992;51.628;6.664;2024-01-30T08:56:19;8.93;;;8.13;;
9906;SDS011;4992;51.628;6.664;2024-01-30T08:58:44;9.83;;;7.93;;
9906;SDS011;4992;51.628;6.664;2024-01-30T09:01:10;9.87;;;8.87;;
9906;SDS011;4992;51.628;6.664;2024-01-30T09:03:35;9.77;;;8.27;;
9906;SDS011;4992;51.628;6.664;2024-01-30T09:06:07;14.20;;;9.20;;
9906;SDS011;4992;51.628;6.664;2024-01-30T09:08:36;10.10;;;8.20;;
9906;SDS011;4992;51.628;6.664;2024-01-30T09:11:11;9.73;;;8.30;;
9906;SDS011;4992;51.628;6.664;2024-01-30T09:13:38;10.57;;;8.73;;
9906;SDS011;4992;51.628;6.664;2024-01-30T09:16:04;11.77;;;8.57;;
9906;SDS011;4992;51.628;6.664;2024-01-30T09:18:30;10.87;;;8.70;;
9906;SDS011;4992;51.628;6.664;2024-01-30T09:20:55;14.47;;;8.63;;
9906;SDS011;4992;51.628;6.664;2024-01-30T09:23:21;12.70;;;9.53;;
9906;SDS011;4992;51.628;6.664;2024-01-30T09:25:47;15.37;;;9.87;;
9906;SDS011;4992;51.628;6.664;2024-01-30T09:28:12;11.23;;;9.73;;
9906;SDS011;4992;51.628;6.664;2024-01-30T09:30:38;11.17;;;9.20;;
9906;SDS011;4992;51.628;6.664;2024-01-30T09:33:04;13.10;;;9.13;;
9906;SDS011;4992;51.628;6.664;2024-01-30T09:35:31;15.50;;;9.80;;
9906;SDS011;4992;51.628;6.664;2024-01-30T09:37:57;11.77;;;10.57;;
9906;SDS011;4992;51.628;6.664;2024-01-30T09:40:23;11.23;;;9.27;;
9906;SDS011;4992;51.628;6.664;2024-01-30T09:42:49;10.73;;;9.60;;
9906;SDS011;4992;51.628;6.664;2024-01-30T09:45:17;10.10;;;8.93;;
9906;SDS011;4992;51.628;6.664;2024-01-30T09:47:44;10.37;;;9.27;;
9906;SDS011;4992;51.628;6.664;2024-01-30T09:50:11;13.13;;;9.27;;
9906;SDS011;4992;51.628;6.664;2024-01-30T09:52:37;9.38;;;8.23;;
9906;SDS011;4992;51.628;6.664;2024-01-30T09:55:04;11.57;;;7.63;;
9906;SDS011;4992;51.628;6.664;2024-01-30T09:57:30;11.07;;;8.15;;
9906;SDS011;4992;51.628;6.664;2024-01-30T09:59:56;10.75;;;8.52;;
9906;SDS011;4992;51.628;6.664;2024-01-30T10:02:22;9.88;;;7.95;;
9906;SDS011;4992;51.628;6.664;2024-01-30T10:04:48;9.13;;;8.20;;
9906;SDS011;4992;51.628;6.664;2024-01-30T10:07:14;10.05;;;7.45;;
9906;SDS011;4992;51.628;6.664;2024-01-30T10:09:40;9.82;;;7.60;;
9906;SDS011;4992;51.628;6.664;2024-01-30T10:12:06;10.82;;;8.00;;
9906;SDS011;4992;51.628;6.664;2024-01-30T10:14:33;10.45;;;7.40;;
9906;SDS011;4992;51.628;6.664;2024-01-30T10:17:01;10.05;;;7.57;;
9906;SDS011;4992;51.628;6.664;2024-01-30T10:19:27;10.23;;;7.13;;
9906;SDS011;4992;51.628;6.664;2024-01-30T10:21:52;10.43;;;7.75;;
9906;SDS011;4992;51.628;6.664;2024-01-30T10:24:18;10.15;;;6.93;;
9906;SDS011;4992;51.628;6.664;2024-01-30T10:26:43;8.85;;;7.30;;
9906;SDS011;4992;51.628;6.664;2024-01-30T10:29:09;14.10;;;7.43;;
9906;SDS011;4992;51.628;6.664;2024-01-30T10:31:34;11.27;;;6.80;;
9906;SDS011;4992;51.628;6.664;2024-01-30T10:34:00;8.13;;;6.95;;
9906;SDS011;4992;51.628;6.664;2024-01-30T10:36:28;8.23;;;7.07;;
9906;SDS011;4992;51.628;6.664;2024-01-30T10:38:59;10.35;;;7.45;;
9906;SDS011;4992;51.628;6.664;2024-01-30T10:41:28;7.90;;;7.10;;
9906;SDS011;4992;51.628;6.664;2024-01-30T10:44:03;9.00;;;6.72;;
9906;SDS011;4992;51.628;6.664;2024-01-30T10:46:34;9.07;;;7.88;;
9906;SDS011;4992;51.628;6.664;2024-01-30T10:49:02;8.73;;;7.10;;
9906;SDS011;4992;51.628;6.664;2024-01-30T10:51:29;9.48;;;7.50;;
9906;SDS011;4992;51.628;6.664;2024-01-30T10:53:56;9.55;;;7.07;;
9906;SDS011;4992;51.628;6.664;2024-01-30T10:56:22;7.80;;;6.38;;
9906;SDS011;4992;51.628;6.664;2024-01-30T10:58:50;10.25;;;6.65;;
9906;SDS011;4992;51.628;6.664;2024-01-30T11:01:20;7.82;;;6.80;;
9906;SDS011;4992;51.628;6.664;2024-01-30T11:03:48;8.43;;;7.05;;
9906;SDS011;4992;51.628;6.664;2024-01-30T11:06:15;8.68;;;6.75;;
9906;SDS011;4992;51.628;6.664;2024-01-30T11:08:43;9.18;;;7.00;;
9906;SDS011;4992;51.628;6.664;2024-01-30T11:11:10;8.88;;;7.97;;
9906;SDS011;4992;51.628;6.664;2024-01-30T11:13:36;7.20;;;6.45;;
9906;SDS011;4992;51.628;6.664;2024-01-30T11:16:04;9.95;;;7.65;;
9906;SDS011;4992;51.628;6.664;2024-01-30T11:18:30;9.75;;;7.28;;
9906;SDS011;4992;51.628;6.664;2024-01-30T11:20:57;9.43;;;6.90;;
9906;SDS011;4992;51.628;6.664;2024-01-30T11:23:26;9.23;;;6.65;;
9906;SDS011;4992;51.628;6.664;2024-01-30T11:25:52;7.80;;;6.25;;
9906;SDS011;4992;51.628;6.664;2024-01-30T11:28:18;7.60;;;6.80;;
9906;SDS011;4992;51.628;6.664;2024-01-30T11:30:45;7.90;;;7.00;;
9906;SDS011;4992;51.628;6.664;2024-01-30T11:33:13;9.40;;;6.40;;
9906;SDS011;4992;51.628;6.664;2024-01-30T11:35:40;10.20;;;7.20;;
9906;SDS011;4992;51.628;6.664;2024-01-30T11:38:11;8.95;;;7.10;;
9906;SDS011;4992;51.628;6.664;2024-01-30T11:40:39;7.38;;;6.68;;
9906;SDS011;4992;51.628;6.664;2024-01-30T11:43:06;8.35;;;7.30;;
9906;SDS011;4992;51.628;6.664;2024-01-30T11:45:33;8.63;;;7.00;;
9906;SDS011;4992;51.628;6.664;2024-01-30T11:47:59;7.95;;;6.50;;
9906;SDS011;4992;51.628;6.664;2024-01-30T11:50:26;7.55;;;6.20;;
9906;SDS011;4992;51.628;6.664;2024-01-30T11:52:53;7.72;;;6.65;;
9906;SDS011;4992;51.628;6.664;2024-01-30T11:55:19;9.35;;;6.50;;
9906;SDS011;4992;51.628;6.664;2024-01-30T11:57:45;7.63;;;6.78;;
9906;SDS011;4992;51.628;6.664;2024-01-30T12:00:19;11.73;;;7.85;;
9906;SDS011;4992;51.628;6.664;2024-01-30T12:02:49;7.97;;;6.22;;
9906;SDS011;4992;51.628;6.664;2024-01-30T12:05:15;9.65;;;6.78;;
9906;SDS011;4992;51.628;6.664;2024-01-30T12:07:43;8.73;;;6.53;;
9906;SDS011;4992;51.628;6.664;2024-01-30T12:10:10;8.27;;;6.45;;
9906;SDS011;4992;51.628;6.664;2024-01-30T12:12:39;7.78;;;6.85;;
9906;SDS011;4992;51.628;6.664;2024-01-30T12:15:06;10.85;;;7.43;;
9906;SDS011;4992;51.628;6.664;2024-01-30T12:17:33;7.85;;;6.82;;
9906;SDS011;4992;51.628;6.664;2024-01-30T12:20:18;9.73;;;6.57;;
9906;SDS011;4992;51.628;6.664;2024-01-30T12:22:45;9.68;;;6.43;;
9906;SDS011;4992;51.628;6.664;2024-01-30T12:25:12;8.75;;;6.72;;
9906;SDS011;4992;51.628;6.664;2024-01-30T12:27:39;9.45;;;7.20;;
9906;SDS011;4992;51.628;6.664;2024-01-30T12:30:10;8.70;;;6.80;;
9906;SDS011;4992;51.628;6.664;2024-01-30T12:32:38;9.73;;;6.60;;
9906;SDS011;4992;51.628;6.664;2024-01-30T12:35:07;8.00;;;7.22;;
9906;SDS011;4992;51.628;6.664;2024-01-30T12:37:34;14.65;;;7.35;;
9906;SDS011;4992;51.628;6.664;2024-01-30T12:40:00;8.77;;;6.25;;
9906;SDS011;4992;51.628;6.664;2024-01-30T12:42:26;9.88;;;6.35;;
9906;SDS011;4992;51.628;6.664;2024-01-30T12:44:52;8.73;;;7.07;;
9906;SDS011;4992;51.628;6.664;2024-01-30T12:47:18;13.65;;;6.85;;
9906;SDS011;4992;51.628;6.664;2024-01-30T12:49:46;8.35;;;6.72;;
9906;SDS011;4992;51.628;6.664;2024-01-30T12:52:12;10.80;;;7.32;;
9906;SDS011;4992;51.628;6.664;2024-01-30T12:54:39;8.25;;;6.38;;
9906;SDS011;4992;51.628;6.664;2024-01-30T12:57:05;12.60;;;7.38;;
9906;SDS011;4992;51.628;6.664;2024-01-30T12:59:31;9.25;;;6.97;;
9906;SDS011;4992;51.628;6.664;2024-01-30T13:01:56;10.30;;;6.53;;
9906;SDS011;4992;51.628;6.664;2024-01-30T13:04:23;10.05;;;7.03;;
9906;SDS011;4992;51.628;6.664;2024-01-30T13:06:49;12.40;;;7.40;;
9906;SDS011;4992;51.628;6.664;2024-01-30T13:09:14;10.48;;;7.10;;
9906;SDS011;4992;51.628;6.664;2024-01-30T13:11:40;8.93;;;7.70;;
9906;SDS011;4992;51.628;6.664;2024-01-30T13:14:06;7.97;;;7.18;;
9906;SDS011;4992;51.628;6.664;2024-01-30T13:16:31;10.43;;;7.40;;
9906;SDS011;4992;51.628;6.664;2024-01-30T13:18:57;12.63;;;7.78;;
9906;SDS011;4992;51.628;6.664;2024-01-30T13:21:23;13.43;;;7.82;;
9906;SDS011;4992;51.628;6.664;2024-01-30T13:23:48;12.40;;;7.30;;
9906;SDS011;4992;51.628;6.664;2024-01-30T13:26:18;12.85;;;7.03;;
9906;SDS011;4992;51.628;6.664;2024-01-30T13:28:43;11.73;;;7.15;;
9906;SDS011;4992;51.628;6.664;2024-01-30T13:31:09;10.98;;;6.97;;
9906;SDS011;4992;51.628;6.664;2024-01-30T13:33:34;9.30;;;6.60;;
9906;SDS011;4992;51.628;6.664;2024-01-30T13:36:00;6.75;;;6.05;;
9906;SDS011;4992;51.628;6.664;2024-01-30T13:38:25;10.32;;;6.68;;
9906;SDS011;4992;51.628;6.664;2024-01-30T13:40:51;9.95;;;8.55;;
9906;SDS011;4992;51.628;6.664;2024-01-30T13:43:17;8.38;;;7.10;;
9906;SDS011;4992;51.628;6.664;2024-01-30T13:45:43;7.03;;;6.32;;
9906;SDS011;4992;51.628;6.664;2024-01-30T13:48:08;10.40;;;6.32;;
9906;SDS011;4992;51.628;6.664;2024-01-30T13:50:34;7.30;;;5.75;;
9906;SDS011;4992;51.628;6.664;2024-01-30T13:53:00;9.20;;;5.93;;
9906;SDS011;4992;51.628;6.664;2024-01-30T13:55:25;7.28;;;5.85;;
9906;SDS011;4992;51.628;6.664;2024-01-30T13:57:51;10.02;;;6.82;;
9906;SDS011;4992;51.628;6.664;2024-01-30T14:00:16;11.82;;;6.60;;
9906;SDS011;4992;51.628;6.664;2024-01-30T14:02:42;7.85;;;6.18;;
9906;SDS011;4992;51.628;6.664;2024-01-30T14:05:09;8.43;;;6.25;;
9906;SDS011;4992;51.628;6.664;2024-01-30T14:07:35;7.85;;;5.43;;
9906;SDS011;4992;51.628;6.664;2024-01-30T14:10:02;7.10;;;5.70;;
9906;SDS011;4992;51.628;6.664;2024-01-30T14:12:28;8.05;;;4.90;;
9906;SDS011;4992;51.628;6.664;2024-01-30T14:14:55;7.07;;;4.43;;
9906;SDS011;4992;51.628;6.664;2024-01-30T14:17:20;7.88;;;4.13;;
9906;SDS011;4992;51.628;6.664;2024-01-30T14:19:46;6.20;;;3.80;;
9906;SDS011;4992;51.628;6.664;2024-01-30T14:22:11;5.82;;;3.40;;
9906;SDS011;4992;51.628;6.664;2024-01-30T14:24:37;5.85;;;3.55;;
9906;SDS011;4992;51.628;6.664;2024-01-30T14:27:03;8.40;;;3.30;;
9906;SDS011;4992;51.628;6.664;2024-01-30T14:29:28;5.63;;;3.30;;
9906;SDS011;4992;51.628;6.664;2024-01-30T14:31:54;4.40;;;3.15;;
9906;SDS011;4992;51.628;6.664;2024-01-30T14:34:20;5.63;;;3.17;;
9906;SDS011;4992;51.628;6.664;2024-01-30T14:36:45;6.40;;;3.00;;
9906;SDS011;4992;51.628;6.664;2024-01-30T14:39:11;4.88;;;2.90;;
9906;SDS011;4992;51.628;6.664;2024-01-30T14:41:37;5.00;;;2.20;;
9906;SDS011;4992;51.628;6.664;2024-01-30T14:44:02;5.57;;;2.55;;
9906;SDS011;4992;51.628;6.664;2024-01-30T14:46:28;3.05;;;1.88;;
9906;SDS011;4992;51.628;6.664;2024-01-30T14:48:54;4.38;;;1.90;;
9906;SDS011;4992;51.628;6.664;2024-01-30T14:51:20;4.22;;;2.10;;
9906;SDS011;4992;51.628;6.664;2024-01-30T14:53:45;3.67;;;1.85;;
9906;SDS011;4992;51.628;6.664;2024-01-30T14:56:11;4.53;;;1.60;;